Latest Weather Observations for Little Bay

IDN60801

Issued at 12:03 am EST Monday 20 April 2015 (issued every 30 minutes, with the page automatically refreshed every 10 minutes)

About weather observations | Map of weather stations | Latest weather observations for NSW | Other Formats
Station Details ID: 066051 Name: LITTLE BAY (THE COAST GOLF CLUB) Lat: -33.98 Lon: 151.25 Height: 22.0 m
Data from the previous 72 hours. | See also: Recent months for locations in New South Wales
Date/Time
EST
Temp
°C
App
Temp
°C
Dew
Point
Rel
Hum
%
Delta-T
°C
Wind Press
QNH
hPa
Press
MSL
hPa
Rain
since 9 am
mm
Dir
 
Spd
km/h
Gust
km/h
Spd
kts
Gust
kts
20/12:00am - - - - - SSW 35 46 19 25 - - -
 
Date/Time
EST
Temp
°C
App
Temp
°C
Dew
Point
Rel
Hum
%
Delta-T
°C
Wind Press
QNH
hPa
Press
MSL
hPa
Rain
since 9 am
mm
Dir
 
Spd
km/h
Gust
km/h
Spd
kts
Gust
kts
19/11:30pm - - - - - SSW 32 48 17 26 - - -
19/11:00pm - - - - - SSW 35 48 19 26 - - -
19/10:30pm - - - - - SSW 37 56 20 30 - - -
19/10:00pm - - - - - S 37 48 20 26 - - -
19/09:30pm - - - - - S 39 54 21 29 - - -
19/09:00pm - - - - - S 37 52 20 28 - - -
19/08:30pm - - - - - S 37 54 20 29 - - -
19/08:00pm - - - - - S 43 57 23 31 - - -
19/07:30pm - - - - - S 43 59 23 32 - - -
19/07:00pm - - - - - S 41 56 22 30 - - -
19/06:31pm - - - - - S 43 61 23 33 - - -
19/06:30pm - - - - - S 41 56 22 30 - - -
19/06:07pm - - - - - S 41 61 22 33 - - -
19/06:00pm - - - - - S 44 59 24 32 - - -
19/05:31pm - - - - - S 41 59 22 32 - - -
19/05:30pm - - - - - S 41 57 22 31 - - -
19/05:16pm - - - - - S 37 56 20 30 - - -
19/05:00pm - - - - - S 39 52 21 28 - - -
19/04:30pm - - - - - S 39 50 21 27 - - -
19/04:00pm - - - - - S 35 46 19 25 - - -
19/03:30pm - - - - - S 35 48 19 26 - - -
19/03:00pm - - - - - S 32 44 17 24 - - -
19/02:30pm - - - - - S 32 43 17 23 - - -
19/02:00pm - - - - - S 32 43 17 23 - - -
19/01:32pm - - - - - SSW 30 48 16 26 - - -
19/01:30pm - - - - - S 32 48 17 26 - - -
19/01:00pm - - - - - S 33 43 18 23 - - -
19/12:30pm - - - - - S 33 46 18 25 - - -
19/12:00pm - - - - - S 32 43 17 23 - - -
19/11:30am - - - - - S 28 39 15 21 - - -
19/11:00am - - - - - SSW 19 28 10 15 - - -
19/10:30am - - - - - SW 11 20 6 11 - - -
19/10:00am - - - - - SW 11 17 6 9 - - -
19/09:30am - - - - - WSW 15 20 8 11 - - -
19/09:00am - - - - - WSW 15 22 8 12 - - -
19/08:30am - - - - - WSW 15 22 8 12 - - -
19/08:00am - - - - - W 13 20 7 11 - - -
19/07:30am - - - - - W 11 15 6 8 - - -
19/07:00am - - - - - WNW 9 13 5 7 - - -
19/06:30am - - - - - WNW 6 9 3 5 - - -
19/06:00am - - - - - WNW 6 7 3 4 - - -
19/05:30am - - - - - WSW 6 7 3 4 - - -
19/05:00am - - - - - SW 4 6 2 3 - - -
19/04:30am - - - - - WNW 6 7 3 4 - - -
19/04:00am - - - - - W 6 7 3 4 - - -
19/03:30am - - - - - WNW 4 6 2 3 - - -
19/03:00am - - - - - NW 7 11 4 6 - - -
19/02:30am - - - - - CALM 0 0 0 0 - - -
19/02:00am - - - - - NNE 4 4 2 2 - - -
19/01:30am - - - - - NNW 9 13 5 7 - - -
19/01:00am - - - - - NNW 11 17 6 9 - - -
19/12:30am - - - - - NNW 11 17 6 9 - - -
19/12:00am - - - - - NNW 9 13 5 7 - - -
 
Date/Time
EST
Temp
°C
App
Temp
°C
Dew
Point
Rel
Hum
%
Delta-T
°C
Wind Press
QNH
hPa
Press
MSL
hPa
Rain
since 9 am
mm
Dir
 
Spd
km/h
Gust
km/h
Spd
kts
Gust
kts
18/11:30pm - - - - - NNW 9 17 5 9 - - -
18/11:00pm - - - - - NNW 11 17 6 9 - - -
18/10:30pm - - - - - NNW 13 24 7 13 - - -
18/10:00pm - - - - - NW 28 46 15 25 - - -
18/09:59pm - - - - - NW 28 46 15 25 - - -
18/09:30pm - - - - - WNW 13 26 7 14 - - -
18/09:00pm - - - - - N 15 22 8 12 - - -
18/08:30pm - - - - - N 17 26 9 14 - - -
18/08:00pm - - - - - NNE 13 19 7 10 - - -
18/07:30pm - - - - - NNE 19 28 10 15 - - -
18/07:00pm - - - - - NNE 24 33 13 18 - - -
18/06:30pm - - - - - NNE 22 32 12 17 - - -
18/06:00pm - - - - - NNE 22 33 12 18 - - -
18/05:30pm - - - - - N 20 32 11 17 - - -
18/05:00pm - - - - - N 22 33 12 18 - - -
18/04:30pm - - - - - N 19 28 10 15 - - -
18/04:00pm - - - - - N 24 35 13 19 - - -
18/03:30pm - - - - - N 17 24 9 13 - - -
18/03:00pm - - - - - NNE 19 26 10 14 - - -
18/02:30pm - - - - - NNE 22 32 12 17 - - -
18/02:00pm - - - - - NNE 26 37 14 20 - - -
18/01:30pm - - - - - N 20 33 11 18 - - -
18/01:00pm - - - - - N 19 33 10 18 - - -
18/12:30pm - - - - - NNW 19 32 10 17 - - -
18/12:00pm - - - - - NNW 19 30 10 16 - - -
18/11:30am - - - - - N 20 30 11 16 - - -
18/11:00am - - - - - NNW 20 30 11 16 - - -
18/10:30am - - - - - NNE 19 28 10 15 - - -
18/10:00am - - - - - NNE 17 24 9 13 - - -
18/09:30am - - - - - NNE 19 24 10 13 - - -
18/09:00am - - - - - N 15 22 8 12 - - -
18/08:30am - - - - - N 11 17 6 9 - - -
18/08:00am - - - - - N 9 17 5 9 - - -
18/07:30am - - - - - N 11 17 6 9 - - -
18/07:00am - - - - - NNE 13 17 7 9 - - -
18/06:30am - - - - - N 7 13 4 7 - - -
18/06:00am - - - - - N 6 7 3 4 - - -
18/05:30am - - - - - N 7 11 4 6 - - -
18/05:00am - - - - - N 7 11 4 6 - - -
18/04:30am - - - - - N 6 7 3 4 - - -
18/04:00am - - - - - NNW 2 6 1 3 - - -
18/03:30am - - - - - NNW 6 7 3 4 - - -
18/03:00am - - - - - NNW 6 9 3 5 - - -
18/02:30am - - - - - NW 6 9 3 5 - - -
18/02:00am - - - - - WNW 6 6 3 3 - - -
18/01:30am - - - - - WNW 6 7 3 4 - - -
18/01:00am - - - - - NW 6 9 3 5 - - -
18/12:30am - - - - - NNW 7 9 4 5 - - -
18/12:00am - - - - - NW 7 9 4 5 - - -
 
Date/Time
EST
Temp
°C
App
Temp
°C
Dew
Point
Rel
Hum
%
Delta-T
°C
Wind Press
QNH
hPa
Press
MSL
hPa
Rain
since 9 am
mm
Dir
 
Spd
km/h
Gust
km/h
Spd
kts
Gust
kts
17/11:30pm - - - - - NW 6 9 3 5 - - -
17/11:00pm - - - - - N 7 13 4 7 - - -
17/10:30pm - - - - - N 7 11 4 6 - - -
17/10:00pm - - - - - N 7 11 4 6 - - -
17/09:30pm - - - - - NNE 9 13 5 7 - - -
17/09:00pm - - - - - NNE 13 17 7 9 - - -
17/08:30pm - - - - - NE 15 22 8 12 - - -
17/08:00pm - - - - - NE 15 22 8 12 - - -
17/07:30pm - - - - - NE 13 20 7 11 - - -
17/07:00pm - - - - - NE 11 15 6 8 - - -
17/06:30pm - - - - - ENE 9 15 5 8 - - -
17/06:00pm - - - - - ENE 11 15 6 8 - - -
17/05:30pm - - - - - ENE 9 13 5 7 - - -
17/05:00pm - - - - - ENE 11 15 6 8 - - -
17/04:30pm - - - - - NE 11 17 6 9 - - -
17/04:00pm - - - - - ENE 11 15 6 8 - - -
17/03:30pm - - - - - ENE 11 15 6 8 - - -
17/03:00pm - - - - - ENE 11 15 6 8 - - -
17/02:30pm - - - - - ENE 13 19 7 10 - - -
17/02:00pm - - - - - ENE 13 17 7 9 - - -
17/01:30pm - - - - - ENE 11 15 6 8 - - -
17/01:00pm - - - - - ENE 13 17 7 9 - - -
17/12:30pm - - - - - ENE 13 17 7 9 - - -
17/12:00pm - - - - - ENE 9 13 5 7 - - -
17/11:30am - - - - - E 7 13 4 7 - - -
17/11:00am - - - - - ENE 9 13 5 7 - - -
17/10:30am - - - - - NE 9 15 5 8 - - -
17/10:00am - - - - - ENE 11 17 6 9 - - -
17/09:30am - - - - - ENE 15 20 8 11 - - -
17/09:00am - - - - - ENE 15 19 8 10 - - -
17/08:30am - - - - - ENE 13 19 7 10 - - -
17/08:00am - - - - - ENE 13 19 7 10 - - -
17/07:30am - - - - - E 15 19 8 10 - - -
17/07:00am - - - - - E 11 15 6 8 - - -
17/06:30am - - - - - E 13 19 7 10 - - -
17/06:00am - - - - - E 11 17 6 9 - - -
17/05:30am - - - - - ESE 13 17 7 9 - - -
17/05:00am - - - - - SE 13 15 7 8 - - -
17/04:30am - - - - - SE 15 19 8 10 - - -
17/04:00am - - - - - SE 17 22 9 12 - - -
17/03:30am - - - - - SSE 19 22 10 12 - - -
17/03:00am - - - - - SSE 13 19 7 10 - - -
17/02:30am - - - - - SE 9 11 5 6 - - -
17/02:00am - - - - - SSE 13 17 7 9 - - -
17/01:30am - - - - - SE 11 15 6 8 - - -
17/01:00am - - - - - SE 13 17 7 9 - - -
17/12:30am - - - - - SSE 9 15 5 8 - - -

Other Formats:

Comma delimited format used in spreadsheet applications
http://www.bom.gov.au/fwo/IDN60801/IDN60801.94780.axf

JavaScript Object Notation format (JSON) in row-major order
http://www.bom.gov.au/fwo/IDN60801/IDN60801.94780.json